Tiempo atmosférico en la estación meteorológica de Hijar, Teruel (300 m.)



Fecha
DESCASC
Temp. máxima en grados centígrados (hora)
DESCASC
Temp. mínima en grados centígrados (hora)
DESCASC
Temp. media en grados centígrados
DESCASC
Racha de viento máxima en m/sg (hora)
DESCASC
Velocidad máxima media en intervalos de 10 minutos(hora)
DESCASC
Precipitaciones diarias en mm
DESCASC
Precipitaciones de 00:00 a 06:00 en mm
DESCASC
Precipitaciones de 06:00 a 12:00 en mm
DESCASC
Precipitaciones de 12:00 a 18:00 en mm
DESCASC
Precipitaciones de 18:00 a 24:00 en mm
DESCASC
19-02-2019 12.3 (16:40) 1.2 (07:10) 6.8 3.89 (03:20) 2.78 (03:10) 0 0 0 0 0
18-02-2019 14.4 (17:40) -0.2 (04:10) 7.1 4.44 (04:40) 3.06 (04:30) 0 0 0 0 0
17-02-2019 15.4 (17:00) -1 (-00:0) 7.2 4.72 (08:30) 3.61 (08:30) 0 0 0 0 0
16-02-2019 15 (16:00) 0 (00:00) 7.5 3.89 (00:20) 2.5 (04:30) 0 0 0 0 0
15-02-2019 11.5 (17:10) 1.1 (00:00) 6.3 4.17 (03:30) 3.06 (03:40) 0 0 0 0 0
14-02-2019 13.6 (15:30) 2.4 (00:00) 8 5 (16:50) 2.78 (16:50) 0 0 0 0 0
13-02-2019 13.9 (15:40) 0.8 (00:00) 7.3 5 (15:10) 3.06 (15:10) 0 0 0 0 0
12-02-2019 14.7 (14:10) 2.7 (00:00) 8.7 6.67 (10:30) 4.17 (10:10) 0 0 0 0 0
11-02-2019 14.3 (14:00) 6.1 (00:00) 10.2 16.11 (15:10) 8.33 (00:10) 0 0 0 0 0
10-02-2019 20.2 (16:40) 6.2 (00:00) 13.2 15.83 (15:40) 10.28 (15:30) 0 0 0 0 0
09-02-2019 16.8 (15:00) 5.8 (00:00) 11.3 8.33 (04:30) 5.28 (04:40) 0 0 0 0 0
08-02-2019 15.9 (15:50) 3 (00:00) 9.4 5.28 (02:40) 3.61 (04:40) 0 0 0 0 0
07-02-2019 18.1 (15:50) 6.1 (00:00) 12.1 11.11 (10:50) 6.39 (11:00) 0 0 0 0 0
06-02-2019 17.4 (15:50) 6.6 (07:20) 12 4.72 (13:40) 2.78 (00:10) 0 0 0 0 0
05-02-2019 19.3 (15:40) 8.7 (01:40) 14 11.39 (16:30) 5.28 (04:00) 0 0 0 0 0
04-02-2019 16.2 (16:10) 2.8 (00:00) 9.5 10.28 (00:40) 6.67 (00:30) 0 0 0 0 0
03-02-2019 8.9 (14:50) 1.7 (00:00) 5.3 18.33 (04:30) 9.72 (04:30) 0 0 0 0 0
02-02-2019 9.7 (12:40) 2.9 (00:00) 6.3 21.67 (12:20) 10.56 (12:20) 0 0 0 0 0
01-02-2019 15.3 (16:50) 5.7 (00:00) 10.5 17.22 (13:10) 10.83 (13:10) 3 1 1.8 0 0.2
31-01-2019 15.6 (23:00) 4.2 (00:00) 9.9 14.72 (23:00) 8.89 (23:00) 2 1.2 0.8 0 0
30-01-2019 14.1 (14:40) 4 (00:00) 9.1 11.39 (10:20) 7.22 (16:00) 0.8 0 0 0 0.8
29-01-2019 12.1 (16:00) 5.7 (00:00) 8.9 14.44 (18:50) 7.5 (10:40) 1.4 0 0 0 1.4
28-01-2019 12.6 (15:20) 5.4 (00:00) 9 21.11 (10:10) 13.33 (09:40) 0 0 0 0 0
27-01-2019 13.3 (14:30) 5.4 (00:00) 9.4 18.06 (14:50) 7.5 (06:40) 0 0 0 0 0
26-01-2019 16.8 (15:40) 4.8 (00:00) 10.8 11.11 (04:40) 6.67 (04:40) 0 0 0 0 0
25-01-2019 15.2 (14:20) 5.8 (00:00) 10.5 19.17 (10:40) 11.11 (02:00) 0 0 0 0 0
24-01-2019 9.3 (15:00) 4.6 (00:00) 7 16.67 (01:30) 9.17 (23:30) 0 0 0 0 0

Gráficas

Temp. máximas Temp. mínimas Temp. medias Precipitaciones Rachas de viento máximas Velocidades máximas media en intervalos de 10 minutos

Datos horarios

Fecha y hora oficial Temperatura (ºC) Velocidad del viento (km/h) Dirección del viento Racha (km/h) Dirección de racha Precipitación (mm) Presión (hPa) Tendencia (hPa) Humedad (%)
2019-02-22 23:00:00 10.3 17 Sudoeste 23 Sudoeste 0 -- -- 51
2019-02-22 22:00:00 10.7 16 Sudoeste 22 Sudoeste 0 -- -- 54
2019-02-22 21:00:00 11.8 16 Sudoeste 22 Sudoeste 0 -- -- 55
2019-02-22 20:00:00 12.7 8 Sudoeste 13 Sudoeste 0 -- -- 51
2019-02-22 19:00:00 16.2 6 Sudoeste 8 Sudoeste 0 -- -- 42
2019-02-22 18:00:00 19.6 2 Norte 8 Nordeste 0 -- -- 38
2019-02-22 17:00:00 20 5 Nordeste 13 Nordeste 0 -- -- 38
2019-02-22 16:00:00 21.2 4 Norte 12 Norte 0 -- -- 33
2019-02-22 15:00:00 20.9 4 Noroeste 12 Oeste 0 -- -- 37
2019-02-22 14:00:00 18.5 5 Norte 10 Noroeste 0 -- -- 43
2019-02-22 13:00:00 15.5 3 Nordeste 15 Nordeste 0 -- -- 49
2019-02-22 12:00:00 13.3 8 Nordeste 13 Este 0 -- -- 56
2019-02-22 11:00:00 11.8 4 Nordeste 8 Nordeste 0 -- -- 59
2019-02-22 10:00:00 9.7 0 Calma 10 Oeste 0 -- -- 65
2019-02-22 09:00:00 4.5 8 Sudoeste 18 Oeste 0 -- -- 75
2019-02-22 08:00:00 1.6 13 Oeste 15 Sudoeste 0 -- -- 84
2019-02-22 07:00:00 2.9 4 Este 17 Sudoeste 0 -- -- 78
2019-02-22 06:00:00 4.3 14 Sudoeste 18 Sudoeste 0 -- -- 75
2019-02-22 05:00:00 4 11 Sudoeste 15 Sudoeste 0 -- -- 76
2019-02-22 04:00:00 4.4 12 Sudoeste 18 Sudoeste 0 -- -- 75
2019-02-22 03:00:00 4.8 14 Sudoeste 19 Sudoeste 0 -- -- 74
2019-02-22 02:00:00 5.2 6 Sudoeste 9 Sudoeste 0 -- -- 74
2019-02-22 01:00:00 6.2 4 Sudoeste 12 Sudoeste 0 -- -- 72
2019-02-22 00:00:00 6.4 9 Sudoeste 13 Sudoeste 0 -- -- 71
2019-02-21 23:00:00 7.5 5 Sudoeste 10 Sudoeste 0 -- -- 69
2019-02-21 22:00:00 7.9 7 Sudoeste 11 Sudoeste 0 -- -- 70
2019-02-21 21:00:00 8.5 7 Sudoeste 14 Sudoeste 0 -- -- 68
2019-02-21 20:00:00 10.6 4 Sudoeste 8 Sudeste 0 -- -- 58
2019-02-21 19:00:00 12.9 5 Sudeste 11 Este 0 -- -- 53
2019-02-21 18:00:00 15 8 Este 14 Este 0 -- -- 48
2019-02-21 17:00:00 15.6 9 Nordeste 15 Este 0 -- -- 48
2019-02-21 16:00:00 15.8 7 Este 17 Nordeste 0 -- -- 49
2019-02-21 15:00:00 15.6 6 Este 13 Este 0 -- -- 50
2019-02-21 14:00:00 14.5 4 Nordeste 9 Nordeste 0 -- -- 56
2019-02-21 13:00:00 12.4 3 Nordeste 10 Este 0 -- -- 65
2019-02-21 12:00:00 10.7 3 Norte 8 Sudeste 0 -- -- 68
2019-02-21 11:00:00 9 3 Norte 8 Norte 0 -- -- 73
2019-02-21 10:00:00 6.7 3 Oeste 10 Sudoeste 0 -- -- 78
2019-02-21 09:00:00 2.7 8 Sudoeste 12 Sudoeste 0 -- -- 86
2019-02-21 08:00:00 1.4 5 Sudoeste 8 Sudoeste 0 -- -- 89
2019-02-21 07:00:00 1.7 6 Sudoeste 12 Sudoeste 0 -- -- 88
2019-02-21 06:00:00 1.9 8 Sudoeste 12 Sudoeste 0 -- -- 89
2019-02-21 05:00:00 2.4 7 Sudoeste 15 Sudoeste 0 -- -- 87
2019-02-21 04:00:00 2.7 8 Sudoeste 13 Sudoeste 0 -- -- 86
2019-02-21 03:00:00 3 8 Sudoeste 12 Sudoeste 0 -- -- 87
2019-02-21 02:00:00 3.2 9 Sudoeste 13 Oeste 0 -- -- 88
2019-02-21 01:00:00 3.7 6 Sudoeste 10 Sudoeste 0 -- -- 86
2019-02-21 00:00:00 4.5 7 Sudoeste 9 Sudoeste 0 -- -- 84
2019-02-20 23:00:00 5.5 4 Sudoeste 12 Sudoeste 0 -- -- 76
2019-02-20 22:00:00 6.9 9 Sudoeste 12 Sudoeste 0 -- -- 77
2019-02-20 21:00:00 7.5 8 Sudoeste 13 Sudoeste 0 -- -- 73
2019-02-20 20:00:00 8.6 7 Sudoeste 10 Sudoeste 0 -- -- 68
2019-02-20 19:00:00 11.2 5 Este 9 Este 0 -- -- 59
2019-02-20 18:00:00 12.8 6 Nordeste 9 Nordeste 0 -- -- 57
2019-02-20 17:00:00 13.3 4 Nordeste 11 Este 0 -- -- 57
2019-02-20 16:00:00 13.5 5 Este 12 Este 0 -- -- 58
2019-02-20 15:00:00 12.4 5 Este 13 Este 0 -- -- 63
2019-02-20 14:00:00 10.8 3 Nordeste 8 Norte 0 -- -- 72
2019-02-20 13:00:00 8.4 3 Norte 6 Noroeste 0 -- -- 84
2019-02-20 12:00:00 6.2 2 Norte 8 Oeste 0 -- -- 92
2019-02-20 11:00:00 5.2 0 Calma 6 Noroeste 0 -- -- 96
2019-02-20 10:00:00 4 3 Sudoeste 8 Sudoeste 0 -- -- 97
2019-02-20 09:00:00 2.7 5 Sudoeste 12 Sudoeste 0 -- -- 96
2019-02-20 08:00:00 2 8 Sudoeste 15 Sudoeste 0 -- -- 88
2019-02-20 07:00:00 1.5 10 Sudoeste 14 Sudoeste 0 -- -- 89
2019-02-20 06:00:00 1.3 9 Sudoeste 15 Sudoeste 0 -- -- 90
2019-02-20 05:00:00 1.4 8 Sudoeste 13 Sudoeste 0 -- -- 89
2019-02-20 04:00:00 2.4 9 Sudoeste 15 Sudoeste 0 -- -- 87
2019-02-20 03:00:00 2.4 12 Sudoeste 17 Sudoeste 0 -- -- 89
2019-02-20 02:00:00 2.2 8 Sudoeste 13 Sudoeste 0 -- -- 89
2019-02-20 01:00:00 2.8 7 Sudoeste 10 Sudoeste 0 -- -- 86
2019-02-20 00:00:00 3.8 5 Sudoeste 10 Sudoeste 0 -- -- 85
2019-02-19 23:00:00 5.1 7 Sudoeste 11 Sudoeste 0 -- -- 80
2019-02-19 22:00:00 5.6 6 Sudoeste 10 Sudoeste 0 -- -- 77
2019-02-19 21:00:00 6.3 6 Sudoeste 9 Sudoeste 0 -- -- 76
2019-02-19 20:00:00 7.7 7 Sudoeste 9 Sudoeste 0 -- -- 70
2019-02-19 19:00:00 9.6 4 Sudoeste 5 Sudoeste 0 -- -- 64
2019-02-19 18:00:00 12.2 3 Oeste 5 Este 0 -- -- 57
2019-02-19 17:00:00 12.2 2 Norte 8 Norte 0 -- -- 60
2019-02-19 16:00:00 12.1 4 Norte 8 Norte 0 -- -- 64
2019-02-19 15:00:00 11.2 2 Noroeste 10 Norte 0 -- -- 68
2019-02-19 14:00:00 9.8 4 Norte 9 Noroeste 0 -- -- 73
2019-02-19 13:00:00 8.1 3 Noroeste 8 Noroeste 0 -- -- 79
2019-02-19 12:00:00 6.8 3 Noroeste 11 Noroeste 0 -- -- 86
2019-02-19 11:00:00 5.6 2 Noroeste 8 Norte 0 -- -- 93
2019-02-19 10:00:00 4.1 5 Sudoeste 10 Sudoeste 0 -- -- 94
2019-02-19 09:00:00 2.5 8 Sudoeste 12 Sudoeste 0 -- -- 86
2019-02-19 08:00:00 1.6 8 Sudoeste 11 Sudoeste 0 -- -- 87
2019-02-19 07:00:00 1.3 7 Sudoeste 13 Sudoeste 0 -- -- 87
2019-02-19 06:00:00 1.7 9 Sudoeste 13 Sudoeste 0 -- -- 87
2019-02-19 05:00:00 1.6 9 Sudoeste 12 Oeste 0 -- -- 89
2019-02-19 04:00:00 2.1 10 Sudoeste 14 Oeste 0 -- -- 90
2019-02-19 03:00:00 2.2 8 Sudoeste 12 Oeste 0 -- -- 88
2019-02-19 02:00:00 3.3 6 Sudoeste 12 Oeste 0 -- -- 86
2019-02-19 01:00:00 3.6 5 Sudoeste 11 Sudoeste 0 -- -- 86
2019-02-19 00:00:00 4.4 7 Sudoeste 10 Sudoeste 0 -- -- 84
2019-02-18 23:00:00 5.9 4 Sur 8 Sudoeste 0 -- -- 81
2019-02-18 22:00:00 6.2 5 Sudoeste 10 Sudoeste 0 -- -- 77
2019-02-18 21:00:00 7.6 5 Sudoeste 11 Oeste 0 -- -- 72
2019-02-18 20:00:00 10 4 Oeste 8 Sudoeste 0 -- -- 66
2019-02-18 19:00:00 12.3 4 Norte 12 Nordeste 0 -- -- 62
2019-02-18 18:00:00 14.2 3 Nordeste 14 Nordeste 0 -- -- 58
2019-02-18 17:00:00 14.1 4 Nordeste 10 Este 0 -- -- 56
2019-02-18 16:00:00 13.8 4 Este 10 Sudeste 0 -- -- 48
2019-02-18 15:00:00 12.8 7 Este 15 Este 0 -- -- 49
2019-02-18 14:00:00 12.3 5 Nordeste 12 Nordeste 0 -- -- 55
2019-02-18 13:00:00 11.1 4 Norte 9 Norte 0 -- -- 64
2019-02-18 12:00:00 9.9 4 Sudoeste 10 Noroeste 0 -- -- 67
2019-02-18 11:00:00 6.3 3 Sudoeste 12 Oeste 0 -- -- 81
2019-02-18 10:00:00 4.1 7 Sudoeste 14 Sudoeste 0 -- -- 86
2019-02-18 09:00:00 3.1 8 Sudoeste 13 Sudoeste 0 -- -- 84
2019-02-18 08:00:00 3 9 Sudoeste 12 Sudoeste 0 -- -- 87
2019-02-18 07:00:00 2.7 10 Sudoeste 13 Sudoeste 0 -- -- 87
2019-02-18 06:00:00 1.9 9 Sudoeste 14 Sudoeste 0 -- -- 87
2019-02-18 05:00:00 0.5 10 Sudoeste 16 Sudoeste 0 -- -- 89
2019-02-18 04:00:00 -0.1 8 Sudoeste 12 Sudoeste 0 -- -- 84
2019-02-18 03:00:00 0.6 8 Sudoeste 12 Sudoeste 0 -- -- 82
2019-02-18 02:00:00 1.3 6 Sudoeste 10 Sudoeste 0 -- -- 78
2019-02-18 01:00:00 2.5 6 Sudoeste 9 Sudoeste 0 -- -- 75
2019-02-18 00:00:00 3.1 6 Sudoeste 9 Sudoeste 0 -- -- 73
2019-02-17 23:00:00 4.3 6 Sudoeste 10 Sudoeste 0 -- -- 67
2019-02-17 22:00:00 6.1 3 Sudoeste 9 Sudoeste 0 -- -- 59
2019-02-17 21:00:00 8.9 9 Sudeste 13 Sudeste 0 -- -- 50
2019-02-17 20:00:00 10.1 0 Calma 5 Sudoeste 0 -- -- 52
2019-02-17 19:00:00 13.5 5 Nordeste 8 Este 0 -- -- 44
2019-02-17 18:00:00 15 7 Este 13 Este 0 -- -- 41
2019-02-17 17:00:00 15.4 3 Este 10 Este 0 -- -- 31
2019-02-17 16:00:00 15.2 6 Este 12 Nordeste 0 -- -- 30
2019-02-17 15:00:00 14.6 4 Este 13 Este 0 -- -- 30
2019-02-17 14:00:00 12.9 5 Este 12 Este 0 -- -- 37
2019-02-17 13:00:00 11.5 4 Nordeste 9 Nordeste 0 -- -- 43
2019-02-17 12:00:00 9.6 3 Este 11 Este 0 -- -- 49
2019-02-17 11:00:00 8.2 2 Norte 6 Nordeste 0 -- -- 53
2019-02-17 10:00:00 6 3 Sudoeste 12 Sudoeste 0 -- -- 55
2019-02-17 09:00:00 1.3 8 Sudoeste 17 Sudoeste 0 -- -- 68
2019-02-17 08:00:00 -1 8 Sudoeste 14 Sudoeste 0 -- -- 77
2019-02-17 07:00:00 -0.6 6 Sudoeste 14 Sudoeste 0 -- -- 77
2019-02-17 06:00:00 -0.3 10 Sudoeste 16 Sudoeste 0 -- -- 77
2019-02-17 05:00:00 0 6 Sudoeste 15 Sudoeste 0 -- -- 79
2019-02-17 04:00:00 0.8 8 Sudoeste 13 Sudoeste 0 -- -- 78
2019-02-17 03:00:00 1 8 Sudoeste 13 Sudoeste 0 -- -- 79
2019-02-17 02:00:00 1.1 8 Sudoeste 12 Sudoeste 0 -- -- 80
2019-02-17 01:00:00 2.1 5 Sudoeste 10 Oeste 0 -- -- 76
2019-02-17 00:00:00 4.3 6 Sudoeste 11 Sudoeste 0 -- -- 68
2019-02-16 23:00:00 4.8 4 Sudoeste 12 Sudoeste 0 -- -- 71
2019-02-16 22:00:00 8.1 5 Sudeste 12 Este 0 -- -- 56
2019-02-16 21:00:00 7.2 3 Sudoeste 12 Sudoeste 0 -- -- 67
2019-02-16 20:00:00 8.8 7 Sudoeste 11 Sudoeste 0 -- -- 67
2019-02-16 19:00:00 11.4 6 Sudoeste 11 Oeste 0 -- -- 61
2019-02-16 18:00:00 14.2 4 Oeste 8 Oeste 0 -- -- 54
2019-02-16 17:00:00 14.5 2 Noroeste 6 Norte 0 -- -- 54
2019-02-16 16:00:00 15 3 Oeste 8 Este 0 -- -- 54
2019-02-16 15:00:00 12.5 3 Nordeste 12 Nordeste 0 -- -- 61
2019-02-16 14:00:00 11.1 5 Nordeste 13 Nordeste 0 -- -- 64
2019-02-16 13:00:00 9.9 6 Nordeste 12 Nordeste 0 -- -- 67
2019-02-16 12:00:00 7.7 3 Nordeste 13 Nordeste 0 -- -- 76
2019-02-16 11:00:00 6.9 7 Nordeste 10 Este 0 -- -- 75
2019-02-16 10:00:00 4.7 3 Nordeste 6 Nordeste 0 -- -- 81
2019-02-16 09:00:00 1.9 4 Sudoeste 9 Sudoeste 0 -- -- 90
2019-02-16 08:00:00 0.1 4 Sudoeste 12 Sudoeste 0 -- -- 92
2019-02-16 07:00:00 0.2 9 Sudoeste 14 Sudoeste 0 -- -- 92
2019-02-16 06:00:00 0.8 0 Calma 8 Sudoeste 0 -- -- 90
2019-02-16 05:00:00 1.2 7 Sudoeste 13 Sudoeste 0 -- -- 90
2019-02-16 04:00:00 1.7 7 Sudoeste 9 Sudoeste 0 -- -- 89
2019-02-16 03:00:00 2.2 5 Sudoeste 9 Sudoeste 0 -- -- 87
2019-02-16 02:00:00 2.8 5 Sudoeste 13 Sudoeste 0 -- -- 87
2019-02-16 01:00:00 3 6 Sudoeste 14 Sudoeste 0 -- -- 86
2019-02-16 00:00:00 3.6 6 Sudoeste 10 Sudoeste 0 -- -- 86
2019-02-15 23:00:00 4.2 8 Sudoeste 11 Sudoeste 0 -- -- 84
2019-02-15 22:00:00 5 4 Sudoeste 10 Sudoeste 0 -- -- 81
2019-02-15 21:00:00 5.2 6 Sudoeste 9 Sudoeste 0 -- -- 82
2019-02-15 20:00:00 6.2 6 Sudoeste 9 Sudoeste 0 -- -- 78
2019-02-15 19:00:00 8.5 6 Sudoeste 8 Oeste 0 -- -- 71
2019-02-15 18:00:00 11.3 5 Oeste 7 Oeste 0 -- -- 60
2019-02-15 17:00:00 11.3 4 Oeste 7 Oeste 0 -- -- 64
2019-02-15 16:00:00 10 2 Norte 9 Norte 0 -- -- 69
2019-02-15 15:00:00 9.2 3 Noroeste 8 Oeste 0 -- -- 74
2019-02-15 14:00:00 6.4 2 Sur 7 Noroeste 0 -- -- 85
2019-02-15 13:00:00 5.5 3 Noroeste 10 Noroeste 0 -- -- 87
2019-02-15 12:00:00 5 2 Norte 8 Norte 0 -- -- 90
2019-02-15 11:00:00 4.6 4 Oeste 8 Norte 0 -- -- 90
2019-02-15 10:00:00 3.7 2 Sudoeste 5 Sudoeste 0 -- -- 92
2019-02-15 09:00:00 2.6 3 Sudoeste 6 Sudoeste 0 -- -- 92
2019-02-15 08:00:00 2.1 4 Sudoeste 8 Sudoeste 0 -- -- 90
2019-02-15 07:00:00 1.7 5 Sudoeste 10 Sudoeste 0 -- -- 89
2019-02-15 06:00:00 1.3 4 Sudoeste 6 Sudoeste 0 -- -- 91
2019-02-15 05:00:00 1.2 5 Sudoeste 10 Sudoeste 0 -- -- 91
2019-02-15 04:00:00 1.7 8 Sudoeste 15 Sudoeste 0 -- -- 90
2019-02-15 03:00:00 1.8 4 Sudoeste 9 Sudoeste 0 -- -- 92
2019-02-15 02:00:00 1.9 5 Sudoeste 10 Oeste 0 -- -- 91
2019-02-15 01:00:00 3.1 5 Sudoeste 8 Sudoeste 0 -- -- 89
2019-02-15 00:00:00 3.6 4 Sudoeste 13 Sudoeste 0 -- -- 87
2019-02-14 23:00:00 4 7 Sudoeste 10 Oeste 0 -- -- 86
2019-02-14 22:00:00 5.7 4 Sudoeste 11 Sudoeste 0 -- -- 79
2019-02-14 21:00:00 7.3 3 Sudoeste 8 Sudoeste 0 -- -- 75
2019-02-14 20:00:00 9.4 5 Sudoeste 8 Sudoeste 0 -- -- 67
2019-02-14 19:00:00 11.3 4 Este 9 Este 0 -- -- 60
2019-02-14 18:00:00 13.3 4 Este 14 Este 0 -- -- 56
2019-02-14 17:00:00 13.4 7 Nordeste 18 Nordeste 0 -- -- 56
2019-02-14 16:00:00 13.5 8 Este 14 Nordeste 0 -- -- 57
2019-02-14 15:00:00 13.1 5 Nordeste 10 Este 0 -- -- 55
2019-02-14 14:00:00 12.3 3 Norte 11 Norte 0 -- -- 55
2019-02-14 13:00:00 10.6 3 Norte 12 Nordeste 0 -- -- 63
2019-02-14 12:00:00 8.9 4 Nordeste 10 Nordeste 0 -- -- 73
2019-02-14 11:00:00 7 3 Sudoeste 7 Oeste 0 -- -- 81
2019-02-14 10:00:00 4.9 4 Sudoeste 10 Oeste 0 -- -- 90
2019-02-14 09:00:00 4.1 4 Sudoeste 9 Sudoeste 0 -- -- 94
2019-02-14 08:00:00 3.9 6 Sudoeste 9 Oeste 0 -- -- 93
2019-02-14 07:00:00 4.3 4 Sudoeste 10 Sudoeste 0 -- -- 94
2019-02-14 06:00:00 4.3 6 Sudoeste 12 Sudoeste 0 -- -- 95
2019-02-14 05:00:00 4.8 6 Sudoeste 10 Sudoeste 0 -- -- 96
2019-02-14 04:00:00 4.6 6 Sudoeste 10 Sudoeste 0 -- -- 95
2019-02-14 03:00:00 3.6 9 Sudoeste 12 Sudoeste 0 -- -- 92
2019-02-14 02:00:00 2.8 7 Sudoeste 10 Sudoeste 0 -- -- 86
2019-02-14 01:00:00 3 5 Sudoeste 12 Sudoeste 0 -- -- 83
2019-02-14 00:00:00 3.8 7 Sudoeste 9 Oeste 0 -- -- 81
2019-02-13 23:00:00 5 6 Sudoeste 8 Sur 0 -- -- 76
2019-02-13 22:00:00 6.6 7 Sudoeste 10 Sudoeste 0 -- -- 71
2019-02-13 21:00:00 7.4 7 Sudoeste 11 Sudoeste 0 -- -- 68
2019-02-13 20:00:00 9.3 8 Sudoeste 12 Oeste 0 -- -- 63
2019-02-13 19:00:00 11.9 2 Sudoeste 4 Nordeste 0 -- -- 56
2019-02-13 18:00:00 13.7 3 Nordeste 8 Este 0 -- -- 52
2019-02-13 17:00:00 13.8 4 Nordeste 13 Nordeste 0 -- -- 49
2019-02-13 16:00:00 13.7 9 Nordeste 18 Este 0 -- -- 46
2019-02-13 15:00:00 13 8 Nordeste 17 Este 0 -- -- 51
2019-02-13 14:00:00 12 6 Este 13 Este 0 -- -- 56
2019-02-13 13:00:00 10.3 5 Nordeste 12 Nordeste 0 -- -- 61
2019-02-13 12:00:00 8.7 5 Nordeste 12 Nordeste 0 -- -- 65
2019-02-13 11:00:00 7.6 5 Nordeste 10 Nordeste 0 -- -- 68
2019-02-13 10:00:00 6 0 Calma 6 Sudoeste 0 -- -- 73
2019-02-13 09:00:00 2.3 4 Sudoeste 7 Sudoeste 0 -- -- 81
2019-02-13 08:00:00 1 4 Sudoeste 8 Sudoeste 0 -- -- 86
2019-02-13 07:00:00 1.3 3 Sudoeste 8 Sudoeste 0 -- -- 84
2019-02-13 06:00:00 1.6 5 Sudoeste 9 Sudoeste 0 -- -- 84
2019-02-13 05:00:00 2 4 Sudoeste 10 Sudoeste 0 -- -- 84
2019-02-13 04:00:00 2.7 7 Sudoeste 10 Sudoeste 0 -- -- 83
2019-02-13 03:00:00 3 5 Sudoeste 9 Sudoeste 0 -- -- 82
2019-02-13 02:00:00 3.4 0 Calma 2 Sudoeste 0 -- -- 79
2019-02-13 01:00:00 4.2 3 Sudoeste 9 Sudoeste 0 -- -- 78
2019-02-13 00:00:00 4.5 6 Sudoeste 11 Sudoeste 0 -- -- 78
2019-02-12 23:00:00 4.9 6 Sudoeste 14 Sudoeste 0 -- -- 76
2019-02-12 22:00:00 5.6 10 Sudoeste 17 Sudoeste 0 -- -- 74
2019-02-12 21:00:00 6.2 7 Sudoeste 10 Sudoeste 0 -- -- 71
2019-02-12 20:00:00 8 8 Sudoeste 10 Sudoeste 0 -- -- 65
2019-02-12 19:00:00 10.7 0 Calma 7 Nordeste 0 -- -- 56
2019-02-12 18:00:00 12.9 2 Norte 13 Nordeste 0 -- -- 50
2019-02-12 17:00:00 13.4 9 Nordeste 17 Nordeste 0 -- -- 49
2019-02-12 16:00:00 13.9 6 Nordeste 15 Nordeste 0 -- -- 48
2019-02-12 15:00:00 13.9 5 Este 12 Nordeste 0 -- -- 47
2019-02-12 14:00:00 14.6 5 Oeste 16 Oeste 0 -- -- 47
2019-02-12 13:00:00 13.5 6 Noroeste 20 Noroeste 0 -- -- 49
2019-02-12 12:00:00 11.7 6 Noroeste 18 Oeste 0 -- -- 54
2019-02-12 11:00:00 10.6 11 Oeste 24 Oeste 0 -- -- 58
2019-02-12 10:00:00 7.8 9 Oeste 19 Oeste 0 -- -- 65
2019-02-12 09:00:00 3.6 13 Sudoeste 19 Sudoeste 0 -- -- 77
2019-02-12 08:00:00 2.7 14 Sudoeste 21 Sudoeste 0 -- -- 80
2019-02-12 07:00:00 3.7 8 Sudoeste 17 Sudoeste 0 -- -- 77
2019-02-12 06:00:00 3.6 12 Sudoeste 17 Sudoeste 0 -- -- 78
2019-02-12 05:00:00 4 12 Sudoeste 19 Sudoeste 0 -- -- 78
2019-02-12 04:00:00 4.6 10 Sudoeste 17 Sudoeste 0 -- -- 76
2019-02-12 03:00:00 4.9 12 Sudoeste 18 Sudoeste 0 -- -- 76
2019-02-12 02:00:00 5.2 10 Sudoeste 19 Sudoeste 0 -- -- 76
2019-02-12 01:00:00 5.5 10 Sudoeste 18 Sudoeste 0 -- -- 75
2019-02-12 00:00:00 6.1 12 Oeste 21 Oeste 0 -- -- 74
2019-02-11 23:00:00 6.6 15 Oeste 28 Oeste 0 -- -- 72
2019-02-11 22:00:00 7 17 Oeste 29 Oeste 0 -- -- 71
2019-02-11 21:00:00 7.5 15 Oeste 29 Oeste 0 -- -- 69
2019-02-11 20:00:00 8.3 20 Oeste 29 Oeste 0 -- -- 65
2019-02-11 19:00:00 9.4 10 Noroeste 33 Noroeste 0 -- -- 61
2019-02-11 18:00:00 11.4 11 Noroeste 39 Noroeste 0 -- -- 54
2019-02-11 17:00:00 12.6 12 Noroeste 42 Noroeste 0 -- -- 51
2019-02-11 16:00:00 13 14 Noroeste 58 Noroeste 0 -- -- 48
2019-02-11 15:00:00 13.5 19 Noroeste 51 Noroeste 0 -- -- 47
2019-02-11 14:00:00 14.3 17 Noroeste 43 Noroeste 0 -- -- 45
2019-02-11 13:00:00 13.7 18 Noroeste 43 Oeste 0 -- -- 47
2019-02-11 12:00:00 12.7 18 Noroeste 42 Oeste 0 -- -- 51
2019-02-11 11:00:00 11.3 19 Noroeste 44 Noroeste 0 -- -- 55
2019-02-11 10:00:00 9.8 15 Oeste 40 Oeste 0 -- -- 59
2019-02-11 09:00:00 7.1 27 Oeste 47 Oeste 0 -- -- 64
2019-02-11 08:00:00 6.5 24 Oeste 49 Oeste 0 -- -- 64
2019-02-11 07:00:00 6.2 30 Oeste 42 Oeste 0 -- -- 67
2019-02-11 06:00:00 6.4 26 Oeste 43 Oeste 0 -- -- 68
2019-02-11 05:00:00 6.7 24 Oeste 42 Oeste 0 -- -- 70
2019-02-11 04:00:00 7.3 24 Oeste 37 Oeste 0 -- -- 71
2019-02-11 03:00:00 7.5 22 Oeste 37 Oeste 0 -- -- 74
2019-02-11 02:00:00 8.2 23 Oeste 37 Oeste 0 -- -- 74
2019-02-11 01:00:00 8.4 26 Oeste 43 Oeste 0 -- -- 73
2019-02-11 00:00:00 8.4 28 Oeste 48 Oeste 0 -- -- 73
2019-02-10 23:00:00 8.9 28 Oeste 46 Oeste 0 -- -- 73
2019-02-10 22:00:00 10.1 18 Oeste 36 Oeste 0 -- -- 73
2019-02-10 21:00:00 10.5 18 Oeste 33 Oeste 0 -- -- 75
2019-02-10 20:00:00 12 16 Noroeste 42 Noroeste 0 -- -- 66
2019-02-10 19:00:00 14.7 12 Noroeste 38 Oeste 0 -- -- 61
2019-02-10 18:00:00 16.7 22 Oeste 46 Oeste 0 -- -- 50
2019-02-10 17:00:00 19.2 19 Noroeste 45 Oeste 0 -- -- 44
2019-02-10 16:00:00 19.9 28 Oeste 57 Oeste 0 -- -- 41
2019-02-10 15:00:00 19.9 30 Oeste 54 Oeste 0 -- -- 40
2019-02-10 14:00:00 17.6 24 Oeste 48 Oeste 0 -- -- 44
2019-02-10 13:00:00 16 7 Noroeste 32 Oeste 0 -- -- 50
2019-02-10 12:00:00 14.6 12 Oeste 36 Oeste 0 -- -- 52
2019-02-10 11:00:00 12.2 13 Oeste 32 Oeste 0 -- -- 56
2019-02-10 10:00:00 11.2 22 Sudoeste 34 Oeste 0 -- -- 58
2019-02-10 09:00:00 9.8 18 Oeste 30 Oeste 0 -- -- 66
2019-02-10 08:00:00 6.5 5 Oeste 17 Sudoeste 0 -- -- 74
2019-02-10 07:00:00 6.5 13 Sudoeste 18 Sudoeste 0 -- -- 73
2019-02-10 06:00:00 6.4 8 Sudoeste 13 Sudoeste 0 -- -- 75
2019-02-10 05:00:00 6.6 9 Sudoeste 12 Sudoeste 0 -- -- 75
2019-02-10 04:00:00 7 5 Sudoeste 13 Sudoeste 0 -- -- 75
2019-02-10 03:00:00 7 11 Sudoeste 15 Sudoeste 0 -- -- 76
2019-02-10 02:00:00 6.4 6 Sudoeste 15 Sudoeste 0 -- -- 80
2019-02-10 01:00:00 6.7 6 Sudoeste 14 Sudoeste 0 -- -- 79
2019-02-10 00:00:00 6.7 6 Sudoeste 14 Sudoeste 0 -- -- 79
2019-02-09 23:00:00 7.4 5 Sudoeste 12 Sudoeste 0 -- -- 76
2019-02-09 22:00:00 9 3 Sudoeste 9 Oeste 0 -- -- 69
2019-02-09 21:00:00 10.2 3 Sudoeste 8 Sudoeste 0 -- -- 64
2019-02-09 20:00:00 11.8 3 Este 14 Este 0 -- -- 58
2019-02-09 19:00:00 12.6 12 Sudeste 15 Este 0 -- -- 54
2019-02-09 18:00:00 14.3 11 Este 18 Este 0 -- -- 52
2019-02-09 17:00:00 15.5 10 Este 18 Este 0 -- -- 51
2019-02-09 16:00:00 16 11 Este 18 Este 0 -- -- 50
2019-02-09 15:00:00 16.8 7 Nordeste 20 Nordeste 0 -- -- 51
2019-02-09 14:00:00 16.2 10 Nordeste 19 Este 0 -- -- 52
2019-02-09 13:00:00 16 8 Este 17 Nordeste 0 -- -- 53
2019-02-09 12:00:00 15.8 3 Norte 12 Sudoeste 0 -- -- 53
2019-02-09 11:00:00 14 9 Sudoeste 15 Sudoeste 0 -- -- 55
2019-02-09 10:00:00 10.8 5 Sudoeste 11 Oeste 0 -- -- 64
2019-02-09 09:00:00 6.1 6 Sudoeste 11 Oeste 0 -- -- 76
2019-02-09 08:00:00 6.8 9 Sudoeste 14 Sudoeste 0 -- -- 70
2019-02-09 07:00:00 7.3 7 Sudoeste 20 Oeste 0 -- -- 71
2019-02-09 06:00:00 7.6 6 Sudoeste 17 Sudoeste 0 -- -- 68
2019-02-09 05:00:00 9.8 15 Sudoeste 30 Sudoeste 0 -- -- 56
2019-02-09 04:00:00 8.3 6 Noroeste 24 Oeste 0 -- -- 59
2019-02-09 03:00:00 7.5 11 Oeste 19 Sudoeste 0 -- -- 59
2019-02-09 02:00:00 7.8 6 Oeste 19 Sudoeste 0 -- -- 59
2019-02-09 01:00:00 7.6 6 Oeste 17 Sudoeste 0 -- -- 62
2019-02-09 00:00:00 6.3 9 Sudoeste 13 Sudoeste 0 -- -- 75
2019-02-08 23:00:00 6.8 7 Sudoeste 16 Sudoeste 0 -- -- 76
2019-02-08 22:00:00 7.2 7 Sudoeste 15 Sudoeste 0 -- -- 76
2019-02-08 21:00:00 8.6 9 Sudoeste 13 Sudoeste 0 -- -- 73
2019-02-08 20:00:00 10.3 4 Sudoeste 12 Sudoeste 0 -- -- 66
2019-02-08 19:00:00 12.9 5 Este 12 Nordeste 0 -- -- 59
2019-02-08 18:00:00 14.7 8 Este 17 Nordeste 0 -- -- 54
2019-02-08 17:00:00 15.4 11 Nordeste 17 Nordeste 0 -- -- 51
2019-02-08 16:00:00 15.9 10 Este 18 Este 0 -- -- 51
2019-02-08 15:00:00 15.4 9 Este 17 Nordeste 0 -- -- 52
2019-02-08 14:00:00 14.2 7 Este 12 Este 0 -- -- 58
2019-02-08 13:00:00 12.6 5 Nordeste 10 Nordeste 0 -- -- 62
2019-02-08 12:00:00 10.9 4 Este 9 Este 0 -- -- 67
2019-02-08 11:00:00 8.9 3 Nordeste 7 Nordeste 0 -- -- 73
2019-02-08 10:00:00 7 0 Calma 6 Sudoeste 0 -- -- 80
2019-02-08 09:00:00 3.6 5 Sudoeste 8 Sudoeste 0 -- -- 87
2019-02-08 08:00:00 3.5 4 Sudeste 8 Este 0 -- -- 90
2019-02-08 07:00:00 3.8 0 Calma 9 Sudoeste 0 -- -- 89
2019-02-08 06:00:00 4.1 8 Sudoeste 14 Sudoeste 0 -- -- 87
2019-02-08 05:00:00 4.5 12 Sudoeste 17 Sudoeste 0 -- -- 87
2019-02-08 04:00:00 5.1 9 Sudoeste 16 Sudoeste 0 -- -- 86
2019-02-08 03:00:00 5.9 12 Sudoeste 19 Sudoeste 0 -- -- 84
2019-02-08 02:00:00 6.5 9 Sudoeste 18 Sudoeste 0 -- -- 81
2019-02-08 01:00:00 7.9 9 Sudoeste 18 Sudoeste 0 -- -- 76
2019-02-08 00:00:00 8.8 10 Sudoeste 24 Oeste 0 -- -- 72
2019-02-07 23:00:00 9.4 17 Oeste 26 Oeste 0 -- -- 70
2019-02-07 22:00:00 9.8 17 Oeste 24 Oeste 0 -- -- 68
2019-02-07 21:00:00 10 13 Oeste 26 Oeste 0 -- -- 69
2019-02-07 20:00:00 10.8 15 Oeste 23 Oeste 0 -- -- 68
2019-02-07 19:00:00 12.2 10 Noroeste 27 Noroeste 0 -- -- 63
2019-02-07 18:00:00 14.4 7 Noroeste 23 Noroeste 0 -- -- 56
2019-02-07 17:00:00 16.2 8 Noroeste 27 Norte 0 -- -- 49
2019-02-07 16:00:00 17.7 12 Noroeste 27 Noroeste 0 -- -- 45
2019-02-07 15:00:00 18 10 Noroeste 28 Noroeste 0 -- -- 45
2019-02-07 14:00:00 16.7 8 Noroeste 26 Norte 0 -- -- 48
2019-02-07 13:00:00 16.9 13 Noroeste 33 Noroeste 0 -- -- 47
2019-02-07 12:00:00 16.4 18 Oeste 37 Oeste 0 -- -- 48
2019-02-07 11:00:00 14.1 23 Oeste 40 Oeste 0 -- -- 49
2019-02-07 10:00:00 9.7 11 Sudoeste 18 Sudoeste 0 -- -- 63
2019-02-07 09:00:00 6.5 5 Sudoeste 9 Oeste 0 -- -- 79
2019-02-07 08:00:00 6.8 3 Sudoeste 5 Sudoeste 0 -- -- 79
2019-02-07 07:00:00 6.2 2 Oeste 5 Oeste 0 -- -- 82
2019-02-07 06:00:00 6.2 0 Calma 6 Oeste 0 -- -- 81
2019-02-07 05:00:00 6.4 4 Oeste 14 Sudoeste 0 -- -- 81
2019-02-07 04:00:00 6.5 12 Sudoeste 19 Oeste 0 -- -- 81
2019-02-07 03:00:00 6.5 5 Sudoeste 13 Oeste 0 -- -- 82
2019-02-07 02:00:00 7.5 6 Sudoeste 12 Sudoeste 0 -- -- 79
2019-02-07 01:00:00 6.9 8 Sudoeste 13 Sudoeste 0 -- -- 81
2019-02-07 00:00:00 7 6 Sudoeste 9 Sudoeste 0 -- -- 83
2019-02-06 23:00:00 8.1 4 Oeste 10 Sudoeste 0 -- -- 79
2019-02-06 22:00:00 8.9 8 Sudoeste 12 Sudoeste 0 -- -- 78
2019-02-06 21:00:00 9.7 7 Sudoeste 12 Sudoeste 0 -- -- 75
2019-02-06 20:00:00 11.2 4 Sudoeste 8 Sudeste 0 -- -- 69
2019-02-06 19:00:00 13 5 Sudeste 6 Sudeste 0 -- -- 63
2019-02-06 18:00:00 15.2 6 Este 10 Este 0 -- -- 58
2019-02-06 17:00:00 16.3 3 Nordeste 14 Nordeste 0 -- -- 55
2019-02-06 16:00:00 17 8 Nordeste 13 Este 0 -- -- 52
2019-02-06 15:00:00 16.9 5 Este 12 Nordeste 0 -- -- 53
2019-02-06 14:00:00 16 5 Nordeste 17 Este 0 -- -- 55
2019-02-06 13:00:00 15.3 6 Nordeste 13 Nordeste 0 -- -- 57
2019-02-06 12:00:00 14.1 7 Nordeste 11 Nordeste 0 -- -- 61
2019-02-06 11:00:00 13.2 4 Nordeste 12 Sudoeste 0 -- -- 65
2019-02-06 10:00:00 11.2 8 Sudoeste 13 Sudoeste 0 -- -- 65
2019-02-06 09:00:00 8.1 8 Sudoeste 14 Oeste 0 -- -- 75
2019-02-06 08:00:00 6.7 8 Oeste 12 Oeste 0 -- -- 80
2019-02-06 07:00:00 6.8 4 Sudoeste 10 Sudoeste 0 -- -- 80
2019-02-06 06:00:00 7.4 0 Calma 11 Sudoeste 0 -- -- 80
2019-02-06 05:00:00 8.6 4 Oeste 10 Oeste 0 -- -- 77
2019-02-06 04:00:00 9 3 Noroeste 9 Oeste 0 -- -- 76
2019-02-06 03:00:00 10.3 6 Oeste 10 Oeste 0 -- -- 74
2019-02-06 02:00:00 10.1 4 Sudoeste 10 Oeste 0 -- -- 76
2019-02-06 01:00:00 10.4 7 Oeste 15 Oeste 0 -- -- 74
2019-02-06 00:00:00 10.6 9 Oeste 17 Oeste 0 -- -- 75
2019-02-05 23:00:00 11.1 12 Sudoeste 29 Oeste 0 -- -- 73
2019-02-05 22:00:00 11.4 18 Oeste 27 Oeste 0 -- -- 72
2019-02-05 21:00:00 11.7 13 Sudoeste 20 Sudoeste 0 -- -- 70
2019-02-05 20:00:00 12.6 9 Oeste 26 Norte 0 -- -- 67
2019-02-05 19:00:00 13.9 9 Noroeste 32 Oeste 0 -- -- 61
2019-02-05 18:00:00 16.1 12 Noroeste 35 Oeste 0 -- -- 53
2019-02-05 17:00:00 17.4 13 Noroeste 41 Noroeste 0 -- -- 49
2019-02-05 16:00:00 18.7 18 Noroeste 35 Oeste 0 -- -- 46
2019-02-05 15:00:00 18.5 11 Noroeste 33 Noroeste 0 -- -- 49
2019-02-05 14:00:00 18.3 15 Noroeste 36 Oeste 0 -- -- 49
2019-02-05 13:00:00 16.9 14 Noroeste 36 Oeste 0 -- -- 51
2019-02-05 12:00:00 15 17 Noroeste 36 Noroeste 0 -- -- 56
2019-02-05 11:00:00 14 15 Noroeste 39 Oeste 0 -- -- 59
2019-02-05 10:00:00 12.4 16 Oeste 30 Oeste 0 -- -- 64
2019-02-05 09:00:00 9.4 12 Oeste 20 Oeste 0 -- -- 69
2019-02-05 08:00:00 9.1 12 Oeste 23 Oeste 0 -- -- 71
2019-02-05 07:00:00 9.7 16 Oeste 26 Oeste 0 -- -- 68
2019-02-05 06:00:00 9.9 16 Oeste 30 Oeste 0 -- -- 66
2019-02-05 05:00:00 10.3 17 Oeste 29 Oeste 0 -- -- 62
2019-02-05 04:00:00 10.2 19 Oeste 28 Oeste 0 -- -- 59
2019-02-05 03:00:00 10.5 15 Oeste 34 Oeste 0 -- -- 58
2019-02-05 02:00:00 9.3 7 Noroeste 22 Oeste 0 -- -- 60
2019-02-05 01:00:00 9.4 8 Noroeste 30 Oeste 0 -- -- 55
2019-02-05 00:00:00 9.8 18 Oeste 30 Oeste 0 -- -- 48
2019-02-04 23:00:00 9.7 13 Oeste 24 Oeste 0 -- -- 42
2019-02-04 22:00:00 10.2 14 Oeste 23 Oeste 0 -- -- 40
2019-02-04 21:00:00 10.6 10 Oeste 29 Oeste 0 -- -- 36
2019-02-04 20:00:00 11 14 Oeste 26 Oeste 0 -- -- 36
2019-02-04 19:00:00 11.8 18 Oeste 26 Oeste 0 -- -- 38
2019-02-04 18:00:00 12.4 12 Oeste 26 Oeste 0 -- -- 38
2019-02-04 17:00:00 13.7 8 Noroeste 23 Noroeste 0 -- -- 30
2019-02-04 16:00:00 15.7 5 Noroeste 19 Noroeste 0 -- -- 32
2019-02-04 15:00:00 15.2 6 Noroeste 16 Norte 0 -- -- 30
2019-02-04 14:00:00 14.4 4 Noroeste 14 Nordeste 0 -- -- 30
2019-02-04 13:00:00 13.9 4 Noroeste 14 Noroeste 0 -- -- 31
2019-02-04 12:00:00 12.4 4 Noroeste 14 Oeste 0 -- -- 33
2019-02-04 11:00:00 10.1 4 Sur 15 Oeste 0 -- -- 38
2019-02-04 10:00:00 7.1 6 Sudoeste 24 Oeste 0 -- -- 46
2019-02-04 09:00:00 3.3 10 Sudoeste 17 Oeste 0 -- -- 57
2019-02-04 08:00:00 3.3 14 Oeste 26 Oeste 0 -- -- 57
2019-02-04 07:00:00 3.2 18 Oeste 30 Oeste 0 -- -- 61
2019-02-04 06:00:00 3.2 18 Oeste 30 Oeste 0 -- -- 67
2019-02-04 05:00:00 3.4 18 Oeste 28 Oeste 0 -- -- 69
2019-02-04 04:00:00 2.9 15 Oeste 30 Noroeste 0 -- -- 71
2019-02-04 03:00:00 2.9 15 Oeste 33 Oeste 0 -- -- 72
2019-02-04 02:00:00 2.9 16 Oeste 31 Noroeste 0 -- -- 72
2019-02-04 01:00:00 3.2 16 Noroeste 37 Oeste 0 -- -- 71
2019-02-04 00:00:00 3.3 19 Oeste 37 Oeste 0 -- -- 70
2019-02-03 23:00:00 3.5 23 Oeste 40 Oeste 0 -- -- 69
2019-02-03 22:00:00 3.5 16 Noroeste 40 Oeste 0 -- -- 68
2019-02-03 21:00:00 3.6 17 Noroeste 37 Noroeste 0 -- -- 70
2019-02-03 20:00:00 4 21 Oeste 40 Noroeste 0 -- -- 61
2019-02-03 19:00:00 4.7 18 Noroeste 44 Oeste 0 -- -- 57
2019-02-03 18:00:00 6.5 18 Noroeste 58 Noroeste 0 -- -- 50
2019-02-03 17:00:00 7.7 22 Noroeste 54 Norte 0 -- -- 43
2019-02-03 16:00:00 8.6 22 Noroeste 62 Norte 0 -- -- 40
2019-02-03 15:00:00 8.6 23 Noroeste 54 Norte 0 -- -- 39
2019-02-03 14:00:00 8.6 21 Noroeste 65 Noroeste 0 -- -- 42
2019-02-03 13:00:00 7.9 18 Noroeste 59 Norte 0 -- -- 43
2019-02-03 12:00:00 6.4 21 Noroeste 59 Noroeste 0 -- -- 54
2019-02-03 11:00:00 5.5 24 Noroeste 57 Noroeste 0 -- -- 55
2019-02-03 10:00:00 4.4 20 Noroeste 45 Oeste 0 -- -- 64
2019-02-03 09:00:00 2.8 22 Oeste 50 Oeste 0 -- -- 72
2019-02-03 08:00:00 2 26 Noroeste 59 Oeste 0 -- -- 72
2019-02-03 07:00:00 1.7 18 Noroeste 58 Noroeste 0 -- -- 71
2019-02-03 06:00:00 2.1 19 Noroeste 57 Noroeste 0 -- -- 70
2019-02-03 05:00:00 2.2 31 Oeste 66 Oeste 0 -- -- 70
2019-02-03 04:00:00 2.5 29 Oeste 58 Oeste 0 -- -- 71
2019-02-03 03:00:00 2.5 27 Oeste 61 Oeste 0 -- -- 74
2019-02-03 02:00:00 2.8 23 Noroeste 54 Oeste 0 -- -- 75
2019-02-03 01:00:00 3 27 Oeste 59 Oeste 0 -- -- 74
2019-02-03 00:00:00 3.4 31 Noroeste 61 Oeste 0 -- -- 72
2019-02-02 23:00:00 3.1 27 Oeste 55 Noroeste 0 -- -- 74
2019-02-02 22:00:00 3 30 Oeste 49 Oeste 0 -- -- 76
2019-02-02 21:00:00 3.2 14 Noroeste 54 Oeste 0 -- -- 75
2019-02-02 20:00:00 3.8 27 Oeste 64 Noroeste 0 -- -- 69
2019-02-02 19:00:00 4.9 21 Noroeste 61 Noroeste 0 -- -- 60
2019-02-02 18:00:00 6.4 23 Noroeste 64 Oeste 0 -- -- 53
2019-02-02 17:00:00 8 27 Noroeste 69 Noroeste 0 -- -- 52
2019-02-02 16:00:00 8.6 29 Noroeste 67 Noroeste 0 -- -- 49
2019-02-02 15:00:00 8.2 35 Noroeste 75 Oeste 0 -- -- 53
2019-02-02 14:00:00 9.4 29 Noroeste 68 Noroeste 0 -- -- 53
2019-02-02 13:00:00 9.7 29 Noroeste 78 Noroeste 0 -- -- 50
2019-02-02 12:00:00 8.7 35 Noroeste 75 Noroeste 0 -- -- 57
2019-02-02 11:00:00 6.9 27 Noroeste 59 Noroeste 0 -- -- 66
2019-02-02 10:00:00 4.8 30 Oeste 57 Oeste 0 -- -- 81
2019-02-02 09:00:00 5.1 35 Oeste 53 Oeste 0 -- -- 77
2019-02-02 08:00:00 5.8 22 Oeste 39 Oeste 0 -- -- 70
2019-02-02 07:00:00 5 26 Oeste 54 Oeste 0 -- -- 74
2019-02-02 06:00:00 5.9 32 Oeste 48 Oeste 0 -- -- 69
2019-02-02 05:00:00 5.7 13 Oeste 36 Noroeste 0 -- -- 73
2019-02-02 04:00:00 6.5 21 Oeste 40 Oeste 0 -- -- 70
2019-02-02 03:00:00 6.3 22 Oeste 42 Oeste 0 -- -- 70
2019-02-02 02:00:00 6.6 29 Oeste 54 Oeste 0 -- -- 69
2019-02-02 01:00:00 6.5 17 Oeste 35 Sudoeste 0 -- -- 66
2019-02-02 00:00:00 7.1 22 Oeste 46 Sudoeste 0 -- -- 59
2019-02-01 23:00:00 7 21 Oeste 35 Oeste 0 -- -- 62
2019-02-01 22:00:00 6.9 22 Oeste 33 Oeste 0 -- -- 66
2019-02-01 21:00:00 6.7 16 Oeste 53 Oeste 0 -- -- 68
2019-02-01 20:00:00 5.9 35 Oeste 58 Oeste 0.2 -- -- 79
2019-02-01 19:00:00 7.9 16 Noroeste 46 Oeste 0 -- -- 74
2019-02-01 18:00:00 12.8 26 Oeste 47 Oeste 0 -- -- 44
2019-02-01 17:00:00 15 23 Oeste 38 Oeste 0 -- -- 39
2019-02-01 16:00:00 13.9 18 Oeste 48 Oeste 0 -- -- 41
2019-02-01 15:00:00 13.2 28 Oeste 44 Oeste 0 -- -- 46
2019-02-01 14:00:00 12.7 9 Oeste 62 Oeste 0 -- -- 62
2019-02-01 13:00:00 12.9 33 Oeste 53 Oeste 0 -- -- 60
2019-02-01 12:00:00 12.1 24 Oeste 48 Oeste 0 -- -- 62
2019-02-01 11:00:00 11.5 23 Oeste 53 Oeste 0 -- -- 66
2019-02-01 10:00:00 8.7 0 Calma 22 Sudoeste 0 -- -- 81
2019-02-01 09:00:00 8.2 19 Sudoeste 30 Oeste 0 -- -- 81
2019-02-01 08:00:00 8 21 Oeste 31 Oeste 0.4 -- -- 85
2019-02-01 07:00:00 9.4 13 Oeste 34 Oeste 1.4 -- -- 89
2019-02-01 06:00:00 9.9 3 Nordeste 39 Norte 0.8 -- -- 92
2019-02-01 05:00:00 11.3 4 Noroeste 14 Oeste 0.2 -- -- 79
2019-02-01 04:00:00 12 5 Sudoeste 14 Nordeste 0 -- -- 71
2019-02-01 03:00:00 11.8 4 Este 10 Este 0 -- -- 71
2019-02-01 02:00:00 13 7 Sudeste 10 Sudeste 0 -- -- 67
2019-02-01 01:00:00 14.2 0 Calma 34 Oeste 0 -- -- 62
2019-02-01 00:00:00 14.4 19 Sudoeste 50 Sudoeste 0 -- -- 62
2019-01-31 23:00:00 15.6 32 Sudoeste 53 Sudoeste 0 -- -- 57
2019-01-31 22:00:00 14.6 19 Oeste 36 Sudoeste 0 -- -- 62
2019-01-31 21:00:00 15.1 22 Sudoeste 41 Sudoeste 0 -- -- 59
2019-01-31 20:00:00 15.3 23 Oeste 47 Sudoeste 0 -- -- 59
2019-01-31 19:00:00 14.8 18 Oeste 31 Oeste 0 -- -- 62
2019-01-31 18:00:00 14.4 10 Oeste 25 Oeste 0 -- -- 66
2019-01-31 17:00:00 12.8 5 Sudeste 16 Nordeste 0 -- -- 77
2019-01-31 16:00:00 11.6 6 Este 21 Nordeste 0 -- -- 81
2019-01-31 15:00:00 11.2 10 Nordeste 17 Nordeste 0 -- -- 82
2019-01-31 14:00:00 10 8 Nordeste 12 Nordeste 0 -- -- 85
2019-01-31 13:00:00 8.7 8 Nordeste 16 Nordeste 0 -- -- 91
2019-01-31 12:00:00 6.6 10 Este 14 Nordeste 0 -- -- 96
2019-01-31 11:00:00 5.3 4 Este 8 Nordeste 0.8 -- -- 94
2019-01-31 10:00:00 5.3 2 Norte 4 Nordeste 0 -- -- 93
2019-01-31 09:00:00 4.4 2 Este 4 Nordeste 0 -- -- 94
2019-01-31 08:00:00 4.3 3 Nordeste 7 Este 0 -- -- 94
2019-01-31 07:00:00 4.5 0 Calma 8 Nordeste 0 -- -- 94
2019-01-31 06:00:00 4.8 5 Nordeste 12 Este 0 -- -- 92
2019-01-31 05:00:00 4.9 7 Este 12 Este 0 -- -- 92
2019-01-31 04:00:00 5.1 6 Sudeste 14 Este 0.2 -- -- 90
2019-01-31 03:00:00 5.3 11 Este 18 Sudeste 0.2 -- -- 88
2019-01-31 02:00:00 5.6 11 Sudeste 22 Sudeste 0.4 -- -- 87
2019-01-31 01:00:00 5.6 13 Sudeste 21 Sudeste 0.4 -- -- 86
2019-01-31 00:00:00 6.3 9 Este 13 Este 0.4 -- -- 78
2019-01-30 23:00:00 6.8 2 Sudeste 23 Noroeste 0.4 -- -- 72
2019-01-30 22:00:00 6 10 Oeste 18 Oeste 0 -- -- 60
2019-01-30 21:00:00 5 7 Sudoeste 13 Sudoeste 0 -- -- 60
2019-01-30 20:00:00 5.8 9 Sudoeste 12 Oeste 0 -- -- 59
2019-01-30 19:00:00 8.1 4 Sudoeste 12 Oeste 0 -- -- 49
2019-01-30 18:00:00 10.3 8 Oeste 32 Oeste 0 -- -- 43
2019-01-30 17:00:00 11.7 15 Oeste 34 Oeste 0 -- -- 37
2019-01-30 16:00:00 12.7 26 Oeste 37 Oeste 0 -- -- 38
2019-01-30 15:00:00 14 12 Noroeste 39 Oeste 0 -- -- 39
2019-01-30 14:00:00 13.6 14 Noroeste 40 Oeste 0 -- -- 42
2019-01-30 13:00:00 12.8 13 Noroeste 41 Oeste 0 -- -- 44
2019-01-30 12:00:00 11.3 23 Oeste 36 Oeste 0 -- -- 51
2019-01-30 11:00:00 9.7 21 Oeste 41 Oeste -- -- -- 55
2019-01-30 10:00:00 7.8 16 Oeste 30 Oeste 0 -- -- 65
2019-01-30 09:00:00 4.4 12 Oeste 17 Oeste 0 -- -- 77
2019-01-30 08:00:00 4.7 10 Oeste 20 Oeste 0 -- -- 76
2019-01-30 07:00:00 5.3 10 Oeste 16 Oeste 0 -- -- 75
2019-01-30 06:00:00 5.3 5 Oeste 15 Noroeste 0 -- -- 75
2019-01-30 05:00:00 5.5 3 Noroeste 18 Oeste 0 -- -- 72
2019-01-30 04:00:00 5.8 9 Oeste 17 Noroeste 0 -- -- 67
2019-01-30 03:00:00 6 14 Oeste 28 Oeste 0 -- -- 70
2019-01-30 02:00:00 5.5 16 Oeste 30 Noroeste 0 -- -- 72
2019-01-30 01:00:00 5.6 9 Noroeste 30 Noroeste 0 -- -- 77
2019-01-30 00:00:00 6.4 10 Noroeste 29 Oeste 0 -- -- 74
2019-01-29 23:00:00 6.4 11 Oeste 27 Oeste 0 -- -- 79
2019-01-29 22:00:00 6.9 16 Oeste 27 Oeste 0 -- -- 83
2019-01-29 21:00:00 7.6 13 Oeste 27 Oeste 0 -- -- 85
2019-01-29 20:00:00 7.3 13 Oeste 36 Norte 0 -- -- 91
2019-01-29 19:00:00 8.7 23 Norte 52 Norte 1.4 -- -- 85
2019-01-29 18:00:00 11.6 0 Calma 19 Oeste 0 -- -- 64
2019-01-29 17:00:00 12.1 12 Oeste 27 Oeste 0 -- -- 60
2019-01-29 16:00:00 12.1 15 Oeste 37 Noroeste 0 -- -- 55
2019-01-29 15:00:00 11.9 3 Noroeste 17 Nordeste 0 -- -- 56
2019-01-29 14:00:00 11.9 5 Norte 30 Oeste 0 -- -- 55
2019-01-29 13:00:00 10.8 9 Noroeste 33 Oeste 0 -- -- 56
2019-01-29 12:00:00 9.9 23 Oeste 35 Oeste 0 -- -- 56
2019-01-29 11:00:00 10 23 Oeste 40 Oeste 0 -- -- 54
2019-01-29 10:00:00 7.6 19 Oeste 35 Oeste 0 -- -- 60
2019-01-29 09:00:00 6 13 Oeste 27 Sudoeste 0 -- -- 65
2019-01-29 08:00:00 6 17 Sudoeste 26 Oeste 0 -- -- 65
2019-01-29 07:00:00 6.3 13 Sudoeste 26 Oeste 0 -- -- 64
2019-01-29 06:00:00 5.7 16 Oeste 31 Oeste 0 -- -- 72
2019-01-29 05:00:00 6.2 21 Oeste 36 Oeste 0 -- -- 70
2019-01-29 04:00:00 6.3 17 Noroeste 33 Noroeste 0 -- -- 71
2019-01-29 03:00:00 6.3 19 Oeste 36 Oeste 0 -- -- 71
2019-01-29 02:00:00 6.6 24 Oeste 36 Oeste 0 -- -- 70
2019-01-29 01:00:00 6.7 9 Noroeste 35 Noroeste 0 -- -- 70
2019-01-29 00:00:00 8 16 Noroeste 36 Oeste 0 -- -- 66
2019-01-28 23:00:00 7.8 15 Oeste 41 Oeste 0 -- -- 67
2019-01-28 22:00:00 8.1 13 Noroeste 38 Noroeste 0 -- -- 67
2019-01-28 21:00:00 8.6 19 Noroeste 41 Oeste 0 -- -- 65
2019-01-28 20:00:00 8.3 16 Noroeste 39 Noroeste 0 -- -- 66
2019-01-28 19:00:00 8.8 21 Noroeste 51 Noroeste 0 -- -- 64
2019-01-28 18:00:00 9.5 24 Noroeste 63 Noroeste 0 -- -- 63
2019-01-28 17:00:00 11.1 26 Noroeste 72 Oeste 0 -- -- 57
2019-01-28 16:00:00 11 17 Noroeste 65 Norte 0 -- -- 64
2019-01-28 15:00:00 11.9 23 Noroeste 55 Noroeste 0 -- -- 57
2019-01-28 14:00:00 10.5 19 Noroeste 55 Oeste 0 -- -- 67
2019-01-28 13:00:00 8.9 28 Oeste 52 Noroeste 0 -- -- 74
2019-01-28 12:00:00 10.8 23 Noroeste 58 Oeste 0 -- -- 57
2019-01-28 11:00:00 11.2 46 Oeste 76 Oeste 0 -- -- 51
2019-01-28 10:00:00 9.7 44 Oeste 70 Oeste 0 -- -- 54
2019-01-28 09:00:00 7.6 35 Oeste 60 Oeste 0 -- -- 59
2019-01-28 08:00:00 6.9 35 Oeste 62 Oeste 0 -- -- 58
2019-01-28 07:00:00 6.3 35 Oeste 51 Oeste 0 -- -- 59
2019-01-28 06:00:00 5.7 15 Oeste 30 Oeste 0 -- -- 61
2019-01-28 05:00:00 5.5 13 Oeste 26 Oeste 0 -- -- 62
2019-01-28 04:00:00 5.8 13 Oeste 22 Oeste 0 -- -- 68
2019-01-28 03:00:00 6.7 10 Noroeste 26 Noroeste -- -- -- 68
2019-01-28 02:00:00 6.3 11 Noroeste 33 Oeste 0 -- -- 66
2019-01-28 01:00:00 5.9 16 Oeste 33 Noroeste 0 -- -- 65
2019-01-28 00:00:00 6.2 18 Oeste 40 Oeste 0 -- -- 64
2019-01-27 23:00:00 6.9 18 Noroeste 45 Noroeste 0 -- -- 61
2019-01-27 22:00:00 7 18 Oeste 49 Noroeste 0 -- -- 60
2019-01-27 21:00:00 7.3 17 Noroeste 49 Noroeste 0 -- -- 59
2019-01-27 20:00:00 7.5 13 Noroeste 47 Noroeste 0 -- -- 56
2019-01-27 19:00:00 8.2 17 Noroeste 55 Oeste 0 -- -- 56
2019-01-27 18:00:00 8.8 12 Noroeste 53 Noroeste 0 -- -- 64
2019-01-27 17:00:00 11 20 Noroeste 55 Noroeste 0 -- -- 52
2019-01-27 16:00:00 12.4 21 Noroeste 62 Noroeste 0 -- -- 47
2019-01-27 15:00:00 13.2 26 Noroeste 65 Norte 0 -- -- 42
2019-01-27 14:00:00 12.1 19 Noroeste 50 Oeste 0 -- -- 49
2019-01-27 13:00:00 12.6 22 Noroeste 48 Noroeste 0 -- -- 48
2019-01-27 12:00:00 12.2 21 Noroeste 57 Oeste 0 -- -- 52
2019-01-27 11:00:00 9.2 11 Oeste 30 Norte 0 -- -- 68
2019-01-27 10:00:00 8.2 13 Oeste 27 Oeste 0 -- -- 71
2019-01-27 09:00:00 7.4 18 Oeste 33 Oeste 0 -- -- 69
2019-01-27 08:00:00 7.5 14 Oeste 36 Oeste 0 -- -- 68
2019-01-27 07:00:00 8.7 22 Oeste 40 Oeste 0 -- -- 63
2019-01-27 06:00:00 7.5 17 Oeste 28 Sudoeste 0 -- -- 66
2019-01-27 05:00:00 6.1 11 Oeste 18 Oeste 0 -- -- 70
2019-01-27 04:00:00 6.2 10 Sudoeste 15 Oeste 0 -- -- 70
2019-01-27 03:00:00 5.4 10 Sudoeste 17 Oeste 0 -- -- 74
2019-01-27 02:00:00 7.6 9 Sudoeste 17 Sudoeste 0 -- -- 66
2019-01-27 01:00:00 5.8 12 Sudoeste 20 Sudoeste 0 -- -- 75
2019-01-27 00:00:00 5.8 13 Sudoeste 20 Sudoeste 0 -- -- 77
2019-01-26 23:00:00 5.5 13 Sudoeste 19 Sudoeste 0 -- -- 81
2019-01-26 22:00:00 5.1 9 Sudoeste 13 Sudoeste 0 -- -- 81
2019-01-26 21:00:00 6.7 6 Sudoeste 10 Sudoeste 0 -- -- 77
2019-01-26 20:00:00 8.1 7 Sudoeste 10 Sudoeste 0 -- -- 72
2019-01-26 19:00:00 10.7 3 Sudeste 6 Nordeste 0 -- -- 63
2019-01-26 18:00:00 13.7 3 Nordeste 6 Nordeste 0 -- -- 54
2019-01-26 17:00:00 15 2 Norte 9 Noroeste 0 -- -- 49
2019-01-26 16:00:00 16.1 3 Norte 9 Norte 0 -- -- 47
2019-01-26 15:00:00 15.9 4 Noroeste 14 Noroeste 0 -- -- 47
2019-01-26 14:00:00 16 6 Noroeste 18 Oeste 0 -- -- 49
2019-01-26 13:00:00 14.7 8 Oeste 22 Noroeste 0 -- -- 52
2019-01-26 12:00:00 13.3 11 Noroeste 32 Oeste 0 -- -- 56
2019-01-26 11:00:00 12 18 Oeste 34 Oeste 0 -- -- 58
2019-01-26 10:00:00 10.3 16 Oeste 28 Oeste 0 -- -- 63
2019-01-26 09:00:00 8.4 19 Oeste 30 Oeste 0 -- -- 69
2019-01-26 08:00:00 8.3 19 Oeste 34 Oeste 0 -- -- 70
2019-01-26 07:00:00 8.2 20 Oeste 30 Oeste 0 -- -- 72
2019-01-26 06:00:00 8.7 21 Oeste 34 Oeste 0 -- -- 71
2019-01-26 05:00:00 8.8 19 Oeste 40 Oeste 0 -- -- 72
2019-01-26 04:00:00 8.8 17 Oeste 32 Oeste 0 -- -- 72
2019-01-26 03:00:00 9.1 17 Oeste 32 Oeste 0 -- -- 71
2019-01-26 02:00:00 9.1 18 Oeste 31 Oeste 0 -- -- 72
2019-01-26 01:00:00 9.4 18 Oeste 39 Sudoeste 0 -- -- 72
2019-01-26 00:00:00 9.5 24 Oeste 39 Oeste 0 -- -- 72
2019-01-25 23:00:00 9.5 21 Oeste 42 Oeste 0 -- -- 71
2019-01-25 22:00:00 9.7 22 Oeste 45 Oeste 0 -- -- 70
2019-01-25 21:00:00 10 27 Oeste 52 Noroeste 0 -- -- 69
2019-01-25 20:00:00 10.2 26 Oeste 55 Oeste 0 -- -- 67
2019-01-25 19:00:00 10.8 23 Noroeste 61 Noroeste 0 -- -- 67
2019-01-25 18:00:00 11.7 23 Noroeste 63 Noroeste 0 -- -- 65
2019-01-25 17:00:00 12.6 24 Noroeste 62 Noroeste 0 -- -- 63
2019-01-25 16:00:00 14.3 31 Noroeste 64 Noroeste 0 -- -- 57
2019-01-25 15:00:00 15.2 26 Noroeste 67 Noroeste 0 -- -- 55
2019-01-25 14:00:00 14.9 23 Noroeste 63 Oeste 0 -- -- 57
2019-01-25 13:00:00 14.5 23 Noroeste 58 Oeste 0 -- -- 58
2019-01-25 12:00:00 13.9 25 Oeste 57 Oeste 0 -- -- 62
2019-01-25 11:00:00 13.1 28 Oeste 69 Noroeste 0 -- -- 64
2019-01-25 10:00:00 11.7 31 Oeste 62 Oeste 0 -- -- 69
2019-01-25 09:00:00 10.4 36 Oeste 58 Oeste 0 -- -- 72
2019-01-25 08:00:00 9.5 31 Oeste 50 Oeste 0 -- -- 76
2019-01-25 07:00:00 9.2 30 Oeste 47 Oeste 0 -- -- 78
2019-01-25 06:00:00 8.5 26 Oeste 43 Oeste 0 -- -- 81
2019-01-25 05:00:00 7.6 29 Oeste 50 Oeste 0 -- -- 81
2019-01-25 04:00:00 7.2 27 Oeste 55 Noroeste 0 -- -- 78
2019-01-25 03:00:00 7 30 Oeste 59 Oeste 0 -- -- 77
2019-01-25 02:00:00 6.7 40 Oeste 58 Oeste 0 -- -- 75
2019-01-25 01:00:00 5.8 34 Oeste 48 Oeste 0 -- -- 76
2019-01-25 00:00:00 5.8 31 Oeste 48 Oeste 0 -- -- 76
2019-01-24 23:00:00 5.7 31 Oeste 49 Oeste 0 -- -- 75
2019-01-24 22:00:00 5.2 27 Oeste 44 Oeste 0 -- -- 75
2019-01-24 21:00:00 5 21 Oeste 39 Oeste 0 -- -- 73
2019-01-24 20:00:00 5.2 23 Oeste 39 Oeste 0 -- -- 69
2019-01-24 19:00:00 5.7 24 Oeste 42 Oeste 0 -- -- 69
2019-01-24 18:00:00 6.8 17 Noroeste 38 Oeste 0 -- -- 65
2019-01-24 17:00:00 8.4 15 Noroeste 55 Noroeste 0 -- -- 59
2019-01-24 16:00:00 9.1 19 Noroeste 43 Noroeste 0 -- -- 57
2019-01-24 15:00:00 9.3 13 Noroeste 45 Noroeste 0 -- -- 55
2019-01-24 14:00:00 8.2 14 Noroeste 40 Oeste 0 -- -- 57
2019-01-24 13:00:00 7 13 Noroeste 46 Oeste 0 -- -- 59
2019-01-24 12:00:00 6.2 15 Noroeste 40 Oeste 0 -- -- 59
2019-01-24 11:00:00 5.8 14 Noroeste 43 Noroeste 0 -- -- 62
2019-01-24 10:00:00 5.2 18 Noroeste 46 Noroeste 0 -- -- 68
2019-01-24 09:00:00 5 16 Noroeste 40 Noroeste 0 -- -- 74
2019-01-24 08:00:00 4.7 14 Noroeste 44 Noroeste 0 -- -- 78
2019-01-24 07:00:00 4.9 17 Noroeste 44 Noroeste 0 -- -- 75
2019-01-24 06:00:00 5.4 16 Noroeste 46 Noroeste 0 -- -- 75
2019-01-24 05:00:00 5.7 22 Noroeste 52 Oeste 0 -- -- 77
2019-01-24 04:00:00 5.6 20 Noroeste 49 Noroeste 0 -- -- 78
2019-01-24 03:00:00 6.2 19 Noroeste 55 Noroeste 0 -- -- 75
2019-01-24 02:00:00 6.4 19 Noroeste 60 Noroeste 0 -- -- 75
2019-01-24 01:00:00 7.1 23 Noroeste 59 Noroeste 0 -- -- 73
2019-01-24 00:00:00 7.1 22 Noroeste 65 Noroeste 0 -- -- 77